Sbi Carioca — V7LF4 — position and weather

sailwx.info

Track history (hours):
 
Tides and Currents Weather Stations Pressure Air Temp Water Temp Dewpoint Dewpoint Depression Visibility Wind Speed Wind Dir Waves Ship Positions

Sbi Carioca

Last reported at 2018-Jun-21 05:23 UTC. Time now 2018-Jun-23 08:17 UTC.
Position N 48°46' W 007°31'.

Length 229 m; draft 9 m.

Type: Cargo ship. MMSI: 538006268.

Date/timePositionNaut miles runAvg speedWind from/ knotsBaromVisibWave heightAir tempDewpointWater temp
2018-Jun-21 05:23N 48°46' W 007°31'3513.7
2018-Jun-21 02:51N 48°59' W 006°42'1013.7
2018-Jun-21 02:09N 49°02' W 006°28'413.7
2018-Jun-21 01:53N 49°04' W 006°23'613.6
2018-Jun-21 01:27N 49°06' W 006°15'1513.4
2018-Jun-21 00:18N 49°12' W 005°53'8611.5
2018-Jun-20 16:48N 49°44' W 003°50'311.8
2018-Jun-20 16:30N 49°46' W 003°45'611.5
2018-Jun-20 15:59N 49°48' W 003°37'611.3
2018-Jun-20 15:28N 49°50' W 003°28'510.9
2018-Jun-20 15:01N 49°52' W 003°21'610.6
2018-Jun-20 14:28N 49°54' W 003°13'510.2
2018-Jun-20 14:00N 49°55' W 003°06'5 9.9
2018-Jun-20 13:30N 49°57' W 002°58'5 9.6
2018-Jun-20 13:00N 49°58' W 002°51'6 9.4
2018-Jun-20 12:23N 49°60' W 002°42'4 9.3
2018-Jun-20 11:54N 50°01' W 002°36'4 9.2
2018-Jun-20 11:30N 50°02' W 002°30'5 9.5
2018-Jun-20 11:01N 50°03' W 002°23'5 9.7
2018-Jun-20 10:30N 50°05' W 002°16'510.4
2018-Jun-20 10:00N 50°06' W 002°08'510.4
2018-Jun-20 09:30N 50°07' W 002°00'611.8
2018-Jun-20 09:00N 50°09' W 001°51'612.5
2018-Jun-20 08:30N 50°11' W 001°42'612.8
2018-Jun-20 08:01N 50°12' W 001°32'713.1
2018-Jun-20 07:30N 50°14' W 001°22'713.3
2018-Jun-20 07:00N 50°16' W 001°12'713.4
2018-Jun-20 06:27N 50°18' W 001°01'612.8
2018-Jun-20 05:59N 50°19' W 000°52'612.0
2018-Jun-20 05:31N 50°21' W 000°44'2710.8
2018-Jun-20 02:58N 50°28' W 000°02'5 9.4
2018-Jun-20 02:28N 50°29' E 000°05'4 8.9
2018-Jun-20 01:59N 50°30' E 000°12'4 8.7
2018-Jun-20 01:30N 50°31' E 000°18'11 8.8
2018-Jun-20 00:13N 50°34' E 000°35'210.5
2018-Jun-20 00:00N 50°35' E 000°38'511.0
2018-Jun-19 23:30N 50°39' E 000°45'611.7
2018-Jun-19 22:59N 50°42' E 000°53'612.3
2018-Jun-19 22:30N 50°46' E 001°01'612.4
2018-Jun-19 22:00N 50°49' E 001°09'612.2
2018-Jun-19 21:30N 50°53' E 001°16'612.0
2018-Jun-19 21:00N 50°57' E 001°22'611.2
2018-Jun-19 20:30N 51°01' E 001°29'510.5
2018-Jun-19 20:00N 51°04' E 001°36'510.8
2018-Jun-19 19:30N 51°03' E 001°44'510.0
2018-Jun-19 19:00N 51°03' E 001°52'5 8.8
2018-Jun-19 18:28N 51°03' E 001°59'4 8.1
2018-Jun-19 18:00N 51°03' E 002°05'4 8.2
2018-Jun-19 17:28N 51°04' E 002°12'4 8.1
2018-Jun-19 17:00N 51°04' E 002°18'1 2.9
2018-Jun-19 16:30N 51°03' E 002°20'0 0.0
2018-Jun-19 16:00N 51°03' E 002°20'1 0.2
2018-Jun-19 13:24N 51°03' E 002°19'0 0.0
2018-Jun-19 12:51N 51°03' E 002°19'0 0.0
2018-Jun-19 12:27N 51°03' E 002°19'0 0.0
2018-Jun-19 11:51N 51°03' E 002°19'0 0.0
2018-Jun-19 11:24N 51°03' E 002°19'0 0.0
2018-Jun-19 10:45N 51°03' E 002°19'0 0.0
2018-Jun-19 09:00N 51°03' E 002°19'0 0.0
2018-Jun-19 08:30N 51°03' E 002°19'0 0.0
2018-Jun-19 08:00N 51°03' E 002°19'0 0.0
2018-Jun-19 06:00N 51°03' E 002°19'0 0.0
2018-Jun-19 04:09N 51°03' E 002°19'0 0.0
2018-Jun-19 03:48N 51°03' E 002°19'0 0.0
2018-Jun-19 00:24N 51°03' E 002°19'0 0.0
2018-Jun-18 20:57N 51°03' E 002°19'0 0.0
2018-Jun-18 17:30N 51°03' E 002°19'0 0.0
2018-Jun-18 16:57N 51°03' E 002°19'0 0.0
2018-Jun-18 12:18N 51°03' E 002°19'0 0.0
2018-Jun-18 11:57N 51°03' E 002°19'0 0.0
2018-Jun-18 11:24N 51°03' E 002°19'0 0.0
2018-Jun-18 10:57N 51°03' E 002°19'0 0.0
2018-Jun-18 10:09N 51°03' E 002°19'0 0.0
2018-Jun-18 09:57N 51°03' E 002°19'0 0.0
2018-Jun-18 09:27N 51°03' E 002°19'0 0.0
2018-Jun-18 08:57N 51°03' E 002°19'0 0.0
2018-Jun-18 08:30N 51°03' E 002°19'0 0.0
2018-Jun-18 07:57N 51°03' E 002°19'0 0.0
2018-Jun-18 06:12N 51°03' E 002°19'0 0.0
2018-Jun-18 01:36N 51°03' E 002°19'0 0.0
2018-Jun-18 01:09N 51°03' E 002°19'0 0.0
2018-Jun-17 21:18N 51°03' E 002°19'0 0.0
2018-Jun-17 19:42N 51°03' E 002°19'0 0.0
2018-Jun-17 19:18N 51°03' E 002°19'0 0.0
2018-Jun-17 18:00N 51°03' E 002°19'0 0.0
2018-Jun-17 16:39N 51°03' E 002°19'0 0.0
2018-Jun-17 16:18N 51°03' E 002°19'0 0.0
2018-Jun-17 15:51N 51°03' E 002°19'0 0.0
2018-Jun-17 15:30N 51°03' E 002°19'0 0.0
2018-Jun-17 14:54N 51°03' E 002°19'0 0.0
2018-Jun-17 14:24N 51°03' E 002°19'0 0.0
2018-Jun-17 13:57N 51°03' E 002°19'0 0.0
2018-Jun-17 13:30N 51°03' E 002°19'0 0.0
2018-Jun-17 13:00N 51°03' E 002°19'0 0.0
2018-Jun-17 11:27N 51°03' E 002°19'0 0.0
2018-Jun-17 09:27N 51°03' E 002°19'0 0.0
2018-Jun-17 09:00N 51°03' E 002°19'0 0.0
2018-Jun-17 06:54N 51°03' E 002°19'0 0.0
2018-Jun-17 06:30N 51°03' E 002°19'0 0.0
2018-Jun-17 05:51N 51°03' E 002°19'0 0.0
2018-Jun-17 04:33N 51°03' E 002°19'0 0.1
2018-Jun-17 04:30N 51°03' E 002°19'0 0.0
2018-Jun-17 03:51N 51°03' E 002°19'0 0.0
2018-Jun-17 03:30N 51°03' E 002°19'0 0.0
2018-Jun-17 03:00N 51°03' E 002°19'0 0.0
2018-Jun-17 02:24N 51°03' E 002°19'0 0.0
2018-Jun-17 02:00N 51°03' E 002°19'0 0.0
2018-Jun-17 01:15N 51°03' E 002°19'0 0.0
2018-Jun-17 00:36N 51°03' E 002°19'0 0.0
2018-Jun-17 00:18N 51°03' E 002°19'0 0.0
2018-Jun-17 00:00N 51°03' E 002°19'0 0.0
2018-Jun-16 23:30N 51°03' E 002°19'0 0.0
2018-Jun-16 22:57N 51°03' E 002°19'0 0.0
2018-Jun-16 22:30N 51°03' E 002°19'0 0.0
2018-Jun-16 21:03N 51°03' E 002°19'0 0.0
2018-Jun-16 20:36N 51°03' E 002°19'0 0.0
2018-Jun-16 20:24N 51°03' E 002°19'0 0.0
2018-Jun-16 18:27N 51°03' E 002°19'0 0.0
2018-Jun-16 18:00N 51°03' E 002°19'0 0.0
2018-Jun-16 17:30N 51°03' E 002°19'0 0.0
2018-Jun-16 13:30N 51°03' E 002°19'0 0.0
2018-Jun-16 13:00N 51°03' E 002°19'0 0.0
2018-Jun-16 10:58N 51°03' E 002°19'0 0.0
2018-Jun-16 10:30N 51°03' E 002°19'0 0.0
2018-Jun-16 09:50N 51°03' E 002°19'0 0.0
2018-Jun-16 09:30N 51°03' E 002°19'0 0.0
2018-Jun-16 09:00N 51°03' E 002°19'0 0.0
2018-Jun-16 08:30N 51°03' E 002°19'0 0.0
2018-Jun-16 08:00N 51°03' E 002°19'0 0.0
2018-Jun-16 07:30N 51°03' E 002°19'0 0.0
2018-Jun-16 07:00N 51°03' E 002°19'0 0.0
2018-Jun-16 06:30N 51°03' E 002°19'0 0.0
2018-Jun-16 06:00N 51°03' E 002°19'0 0.0
2018-Jun-16 05:30N 51°03' E 002°19'0 0.0
2018-Jun-16 05:00N 51°03' E 002°19'0 0.0
2018-Jun-16 04:30N 51°03' E 002°19'0 0.0
2018-Jun-16 04:00N 51°03' E 002°19'0 0.0
2018-Jun-16 03:30N 51°03' E 002°19'0 0.0
2018-Jun-16 03:00N 51°03' E 002°19'0 0.0
2018-Jun-16 02:30N 51°03' E 002°19'0 0.0
2018-Jun-16 02:00N 51°03' E 002°19'0 0.0
2018-Jun-16 01:28N 51°03' E 002°19'0 0.0
2018-Jun-16 00:59N 51°03' E 002°19'0 0.0
2018-Jun-16 00:30N 51°03' E 002°19'0 0.0
2018-Jun-16 00:00N 51°03' E 002°19'0 0.0
2018-Jun-15 23:31N 51°03' E 002°19'0 0.0
2018-Jun-15 23:00N 51°03' E 002°19'0 0.0
2018-Jun-15 22:30N 51°03' E 002°19'0 0.0
2018-Jun-15 22:00N 51°03' E 002°19'0 0.0
2018-Jun-15 21:30N 51°03' E 002°19'0 0.0
2018-Jun-15 21:00N 51°03' E 002°19'0 0.0
2018-Jun-15 20:30N 51°03' E 002°19'0 0.0
2018-Jun-15 20:00N 51°03' E 002°19'0 0.0
2018-Jun-15 19:30N 51°03' E 002°19'0 0.0
2018-Jun-15 19:00N 51°03' E 002°19'0 0.0
2018-Jun-15 18:30N 51°03' E 002°19'0 0.0
2018-Jun-15 17:30N 51°03' E 002°19'0 0.0
2018-Jun-15 17:00N 51°03' E 002°19'0 0.2
2018-Jun-15 16:30N 51°03' E 002°20'1 1.3
2018-Jun-15 16:00N 51°03' E 002°21'0 0.0
2018-Jun-15 15:30N 51°03' E 002°21'0 0.9
2018-Jun-15 15:00N 51°04' E 002°21'2 4.4
2018-Jun-15 14:30N 51°04' E 002°18'4 8.4
2018-Jun-15 14:00N 51°03' E 002°11'4 8.6
2018-Jun-15 13:30N 51°03' E 002°04'510.4
2018-Jun-15 13:00N 51°03' E 001°56'5 9.8
2018-Jun-15 12:30N 51°02' E 001°48'1 1.5
2018-Jun-15 12:00N 51°02' E 001°47'0 0.9
2018-Jun-15 11:27N 51°02' E 001°48'0 0.5
2018-Jun-15 11:00N 51°02' E 001°47'0 0.1
2018-Jun-15 10:30N 51°02' E 001°47'0 0.1
2018-Jun-15 10:00N 51°02' E 001°47'0 0.0
2018-Jun-15 09:30N 51°02' E 001°47'0 0.0
2018-Jun-15 08:57N 51°02' E 001°47'0 0.0
2018-Jun-15 08:30N 51°02' E 001°47'0 0.0
2018-Jun-15 08:00N 51°02' E 001°47'0 0.1
2018-Jun-15 07:30N 51°02' E 001°47'0 0.0
2018-Jun-15 07:00N 51°02' E 001°47'0 0.1
2018-Jun-15 06:30N 51°02' E 001°47'0 0.1
2018-Jun-15 06:00N 51°02' E 001°47'0 0.0
2018-Jun-15 05:30N 51°02' E 001°47'0 0.0
2018-Jun-15 05:00N 51°02' E 001°47'0 0.4
2018-Jun-15 04:30N 51°02' E 001°48'0 0.3
2018-Jun-15 04:00N 51°02' E 001°48'0 0.1
2018-Jun-15 03:30N 51°02' E 001°48'0 0.0
2018-Jun-15 03:00N 51°02' E 001°48'0 0.0
2018-Jun-15 02:30N 51°02' E 001°48'0 0.0
2018-Jun-15 01:57N 51°02' E 001°48'0 0.0
2018-Jun-15 01:30N 51°02' E 001°48'0 0.1
2018-Jun-15 01:00N 51°02' E 001°48'0 0.1
2018-Jun-15 00:30N 51°02' E 001°48'0 0.0
2018-Jun-15 00:00N 51°02' E 001°48'0 0.0
2018-Jun-14 23:30N 51°02' E 001°48'0 0.0
2018-Jun-14 22:57N 51°02' E 001°48'0 0.1
2018-Jun-14 22:27N 51°02' E 001°48'0 0.5
2018-Jun-14 22:00N 51°02' E 001°48'0 0.3
2018-Jun-14 21:30N 51°02' E 001°47'0 0.1
2018-Jun-14 21:00N 51°02' E 001°47'0 0.0
2018-Jun-14 20:30N 51°02' E 001°47'0 0.0
2018-Jun-14 20:00N 51°02' E 001°47'0 0.0
2018-Jun-14 19:30N 51°02' E 001°47'0 0.0
2018-Jun-14 19:00N 51°02' E 001°47'0 0.0
2018-Jun-14 18:30N 51°02' E 001°47'0 0.0
2018-Jun-14 18:00N 51°02' E 001°47'0 0.2
2018-Jun-14 17:30N 51°02' E 001°47'0 0.5
2018-Jun-14 17:00N 51°02' E 001°48'0 0.1
2018-Jun-14 16:30N 51°02' E 001°48'0 0.2
2018-Jun-14 16:00N 51°02' E 001°48'3 6.7
2018-Jun-14 15:30N 51°02' E 001°42'1 2.7
2018-Jun-14 15:01N 51°00' E 001°43'1 2.1
2018-Jun-14 14:30N 50°60' E 001°41'1 1.6
2018-Jun-14 14:00N 51°01' E 001°42'3 5.8
2018-Jun-14 13:31N 51°03' E 001°44'1 1.8
2018-Jun-14 13:00N 51°03' E 001°46'2 4.2
2018-Jun-14 12:31N 51°02' E 001°43'1 1.0
2018-Jun-14 12:00N 51°02' E 001°42'3 5.4
2018-Jun-14 11:28N 51°03' E 001°47'2 4.2
2018-Jun-14 10:56N 51°04' E 001°50'2 5.5
2018-Jun-14 10:30N 51°03' E 001°46'2 3.0
2018-Jun-14 10:00N 51°02' E 001°44'1 1.9
2018-Jun-14 09:30N 51°02' E 001°43'0 0.6
2018-Jun-14 09:00N 51°02' E 001°43'0 0.7
2018-Jun-14 08:30N 51°02' E 001°43'0 1.0
2018-Jun-14 08:00N 51°02' E 001°44'1 2.4
2018-Jun-14 07:31N 51°01' E 001°45'1 1.1
2018-Jun-14 07:00N 51°01' E 001°46'0 0.8
2018-Jun-14 06:30N 51°01' E 001°46'0 0.1
2018-Jun-14 06:00N 51°01' E 001°46'0 0.0
2018-Jun-14 05:30N 51°01' E 001°46'0 0.0
2018-Jun-14 05:00N 51°01' E 001°46'0 0.2
2018-Jun-14 04:30N 51°02' E 001°46'0 0.4
2018-Jun-14 04:00N 51°02' E 001°46'0 0.2
2018-Jun-14 03:31N 51°02' E 001°46'0 0.1
2018-Jun-14 03:00N 51°02' E 001°46'0 0.0
2018-Jun-14 02:30N 51°02' E 001°46'0 0.0
2018-Jun-14 02:00N 51°02' E 001°46'0 0.0
2018-Jun-14 01:30N 51°02' E 001°46'0 0.0
2018-Jun-14 01:00N 51°02' E 001°46'0 0.2
2018-Jun-14 00:30N 51°02' E 001°46'0 0.0
2018-Jun-14 00:01N 51°02' E 001°46'0 0.0
2018-Jun-13 23:30N 51°02' E 001°46'0 0.0
2018-Jun-13 23:00N 51°02' E 001°46'0 0.0
2018-Jun-13 22:31N 51°02' E 001°46'0 0.0
2018-Jun-13 22:00N 51°02' E 001°46'0 0.1
2018-Jun-13 21:30N 51°02' E 001°46'0 0.6
2018-Jun-13 21:00N 51°02' E 001°46'0 0.1
2018-Jun-13 20:30N 51°02' E 001°46'0 0.0
2018-Jun-13 20:01N 51°02' E 001°46'0 0.0
2018-Jun-13 19:30N 51°02' E 001°46'0 0.0
2018-Jun-13 19:00N 51°02' E 001°46'0 0.0
2018-Jun-13 18:30N 51°02' E 001°46'0 0.1
2018-Jun-13 18:00N 51°02' E 001°46'0 0.4
2018-Jun-13 17:30N 51°02' E 001°46'1 2.1
2018-Jun-13 17:01N 51°02' E 001°44'4 7.3
2018-Jun-13 16:31N 51°01' E 001°38'5 9.4
2018-Jun-13 16:00N 50°57' E 001°33'510.0
2018-Jun-13 15:31N 50°54' E 001°28'510.4
2018-Jun-13 15:00N 50°49' E 001°26'510.5
2018-Jun-13 14:31N 50°44' E 001°23'510.6
2018-Jun-13 14:00N 50°40' E 001°17'510.9
2018-Jun-13 13:30N 50°36' E 001°11'510.7
2018-Jun-13 13:01N 50°32' E 001°05'510.6
2018-Jun-13 12:30N 50°29' E 000°58'510.6
2018-Jun-13 11:59N 50°28' E 000°49'810.9
2018-Jun-13 11:16N 50°26' E 000°37'711.0
2018-Jun-13 10:40N 50°24' E 000°28'211.2
2018-Jun-13 10:30N 50°23' E 000°25'611.5
2018-Jun-13 10:00N 50°22' E 000°16'612.0
2018-Jun-13 09:30N 50°20' E 000°07'612.5
2018-Jun-13 09:00N 50°18' W 000°02'612.8
2018-Jun-13 08:30N 50°17' W 000°12'713.3
2018-Jun-13 08:00N 50°15' W 000°22'713.5
2018-Jun-13 07:31N 50°13' W 000°32'713.6
2018-Jun-13 07:00N 50°11' W 000°42'713.6
2018-Jun-13 06:30N 50°09' W 000°53'713.3
2018-Jun-13 06:00N 50°07' W 001°02'612.8
2018-Jun-13 05:30N 50°06' W 001°12'612.2
2018-Jun-13 05:00N 50°04' W 001°21'611.5
2018-Jun-13 04:30N 50°03' W 001°30'510.5
2018-Jun-13 04:00N 50°02' W 001°38'510.0
2018-Jun-13 03:30N 50°01' W 001°46'5 9.1
2018-Jun-13 03:00N 49°60' W 001°52'9 7.9
2018-Jun-13 01:52N 49°57' W 002°06'3 7.2
2018-Jun-13 01:28N 49°55' W 002°10'3 6.9
2018-Jun-13 00:58N 49°54' W 002°15'5 7.1
2018-Jun-13 00:16N 49°53' W 002°22'15 8.4
2018-Jun-12 22:27N 49°49' W 002°45'1910.4
2018-Jun-12 20:39N 49°41' W 003°11'210.9
2018-Jun-12 20:28N 49°40' W 003°14'5511.7
2018-Jun-12 15:47N 49°13' W 004°27'412.5
2018-Jun-12 15:27N 49°10' W 004°33'512.5
2018-Jun-12 15:00N 49°08' W 004°40'  
Track history (hours):
 
Tides and Currents Weather Stations Pressure Air Temp Water Temp Dewpoint Dewpoint Depression Visibility Wind Speed Wind Dir Waves Ship Positions

Sbi Carioca

Last reported at 2018-Jun-21 05:23 UTC. Time now 2018-Jun-23 08:17 UTC.
Position N 48°46' W 007°31'.

Length 229 m; draft 9 m.

Type: Cargo ship. MMSI: 538006268.

Date/timePositionNaut miles runAvg speedWind from/ knotsBaromVisibWave heightAir tempDewpointWater temp
2018-Jun-21 05:23N 48°46' W 007°31'3513.7
2018-Jun-21 02:51N 48°59' W 006°42'1013.7
2018-Jun-21 02:09N 49°02' W 006°28'413.7
2018-Jun-21 01:53N 49°04' W 006°23'613.6
2018-Jun-21 01:27N 49°06' W 006°15'1513.4
2018-Jun-21 00:18N 49°12' W 005°53'8611.5
2018-Jun-20 16:48N 49°44' W 003°50'311.8
2018-Jun-20 16:30N 49°46' W 003°45'611.5
2018-Jun-20 15:59N 49°48' W 003°37'611.3
2018-Jun-20 15:28N 49°50' W 003°28'510.9
2018-Jun-20 15:01N 49°52' W 003°21'610.6
2018-Jun-20 14:28N 49°54' W 003°13'510.2
2018-Jun-20 14:00N 49°55' W 003°06'5 9.9
2018-Jun-20 13:30N 49°57' W 002°58'5 9.6
2018-Jun-20 13:00N 49°58' W 002°51'6 9.4
2018-Jun-20 12:23N 49°60' W 002°42'4 9.3
2018-Jun-20 11:54N 50°01' W 002°36'4 9.2
2018-Jun-20 11:30N 50°02' W 002°30'5 9.5
2018-Jun-20 11:01N 50°03' W 002°23'5 9.7
2018-Jun-20 10:30N 50°05' W 002°16'510.4
2018-Jun-20 10:00N 50°06' W 002°08'510.4
2018-Jun-20 09:30N 50°07' W 002°00'611.8
2018-Jun-20 09:00N 50°09' W 001°51'612.5
2018-Jun-20 08:30N 50°11' W 001°42'612.8
2018-Jun-20 08:01N 50°12' W 001°32'713.1
2018-Jun-20 07:30N 50°14' W 001°22'713.3
2018-Jun-20 07:00N 50°16' W 001°12'713.4
2018-Jun-20 06:27N 50°18' W 001°01'612.8
2018-Jun-20 05:59N 50°19' W 000°52'612.0
2018-Jun-20 05:31N 50°21' W 000°44'2710.8
2018-Jun-20 02:58N 50°28' W 000°02'5 9.4
2018-Jun-20 02:28N 50°29' E 000°05'4 8.9
2018-Jun-20 01:59N 50°30' E 000°12'4 8.7
2018-Jun-20 01:30N 50°31' E 000°18'11 8.8
2018-Jun-20 00:13N 50°34' E 000°35'210.5
2018-Jun-20 00:00N 50°35' E 000°38'511.0
2018-Jun-19 23:30N 50°39' E 000°45'611.7
2018-Jun-19 22:59N 50°42' E 000°53'612.3
2018-Jun-19 22:30N 50°46' E 001°01'612.4
2018-Jun-19 22:00N 50°49' E 001°09'612.2
2018-Jun-19 21:30N 50°53' E 001°16'612.0
2018-Jun-19 21:00N 50°57' E 001°22'611.2
2018-Jun-19 20:30N 51°01' E 001°29'510.5
2018-Jun-19 20:00N 51°04' E 001°36'510.8
2018-Jun-19 19:30N 51°03' E 001°44'510.0
2018-Jun-19 19:00N 51°03' E 001°52'5 8.8
2018-Jun-19 18:28N 51°03' E 001°59'4 8.1
2018-Jun-19 18:00N 51°03' E 002°05'4 8.2
2018-Jun-19 17:28N 51°04' E 002°12'4 8.1
2018-Jun-19 17:00N 51°04' E 002°18'1 2.9
2018-Jun-19 16:30N 51°03' E 002°20'0 0.0
2018-Jun-19 16:00N 51°03' E 002°20'1 0.2
2018-Jun-19 13:24N 51°03' E 002°19'0 0.0
2018-Jun-19 12:51N 51°03' E 002°19'0 0.0
2018-Jun-19 12:27N 51°03' E 002°19'0 0.0
2018-Jun-19 11:51N 51°03' E 002°19'0 0.0
2018-Jun-19 11:24N 51°03' E 002°19'0 0.0
2018-Jun-19 10:45N 51°03' E 002°19'0 0.0
2018-Jun-19 09:00N 51°03' E 002°19'0 0.0
2018-Jun-19 08:30N 51°03' E 002°19'0 0.0
2018-Jun-19 08:00N 51°03' E 002°19'0 0.0
2018-Jun-19 06:00N 51°03' E 002°19'0 0.0
2018-Jun-19 04:09N 51°03' E 002°19'0 0.0
2018-Jun-19 03:48N 51°03' E 002°19'0 0.0
2018-Jun-19 00:24N 51°03' E 002°19'0 0.0
2018-Jun-18 20:57N 51°03' E 002°19'0 0.0
2018-Jun-18 17:30N 51°03' E 002°19'0 0.0
2018-Jun-18 16:57N 51°03' E 002°19'0 0.0
2018-Jun-18 12:18N 51°03' E 002°19'0 0.0
2018-Jun-18 11:57N 51°03' E 002°19'0 0.0
2018-Jun-18 11:24N 51°03' E 002°19'0 0.0
2018-Jun-18 10:57N 51°03' E 002°19'0 0.0
2018-Jun-18 10:09N 51°03' E 002°19'0 0.0
2018-Jun-18 09:57N 51°03' E 002°19'0 0.0
2018-Jun-18 09:27N 51°03' E 002°19'0 0.0
2018-Jun-18 08:57N 51°03' E 002°19'0 0.0
2018-Jun-18 08:30N 51°03' E 002°19'0 0.0
2018-Jun-18 07:57N 51°03' E 002°19'0 0.0
2018-Jun-18 06:12N 51°03' E 002°19'0 0.0
2018-Jun-18 01:36N 51°03' E 002°19'0 0.0
2018-Jun-18 01:09N 51°03' E 002°19'0 0.0
2018-Jun-17 21:18N 51°03' E 002°19'0 0.0
2018-Jun-17 19:42N 51°03' E 002°19'0 0.0
2018-Jun-17 19:18N 51°03' E 002°19'0 0.0
2018-Jun-17 18:00N 51°03' E 002°19'0 0.0
2018-Jun-17 16:39N 51°03' E 002°19'0 0.0
2018-Jun-17 16:18N 51°03' E 002°19'0 0.0
2018-Jun-17 15:51N 51°03' E 002°19'0 0.0
2018-Jun-17 15:30N 51°03' E 002°19'0 0.0
2018-Jun-17 14:54N 51°03' E 002°19'0 0.0
2018-Jun-17 14:24N 51°03' E 002°19'0 0.0
2018-Jun-17 13:57N 51°03' E 002°19'0 0.0
2018-Jun-17 13:30N 51°03' E 002°19'0 0.0
2018-Jun-17 13:00N 51°03' E 002°19'0 0.0
2018-Jun-17 11:27N 51°03' E 002°19'0 0.0
2018-Jun-17 09:27N 51°03' E 002°19'0 0.0
2018-Jun-17 09:00N 51°03' E 002°19'0 0.0
2018-Jun-17 06:54N 51°03' E 002°19'0 0.0
2018-Jun-17 06:30N 51°03' E 002°19'0 0.0
2018-Jun-17 05:51N 51°03' E 002°19'0 0.0
2018-Jun-17 04:33N 51°03' E 002°19'0 0.1
2018-Jun-17 04:30N 51°03' E 002°19'0 0.0
2018-Jun-17 03:51N 51°03' E 002°19'0 0.0
2018-Jun-17 03:30N 51°03' E 002°19'0 0.0
2018-Jun-17 03:00N 51°03' E 002°19'0 0.0
2018-Jun-17 02:24N 51°03' E 002°19'0 0.0
2018-Jun-17 02:00N 51°03' E 002°19'0 0.0
2018-Jun-17 01:15N 51°03' E 002°19'0 0.0
2018-Jun-17 00:36N 51°03' E 002°19'0 0.0
2018-Jun-17 00:18N 51°03' E 002°19'0 0.0
2018-Jun-17 00:00N 51°03' E 002°19'0 0.0
2018-Jun-16 23:30N 51°03' E 002°19'0 0.0
2018-Jun-16 22:57N 51°03' E 002°19'0 0.0
2018-Jun-16 22:30N 51°03' E 002°19'0 0.0
2018-Jun-16 21:03N 51°03' E 002°19'0 0.0
2018-Jun-16 20:36N 51°03' E 002°19'0 0.0
2018-Jun-16 20:24N 51°03' E 002°19'0 0.0
2018-Jun-16 18:27N 51°03' E 002°19'0 0.0
2018-Jun-16 18:00N 51°03' E 002°19'0 0.0
2018-Jun-16 17:30N 51°03' E 002°19'0 0.0
2018-Jun-16 13:30N 51°03' E 002°19'0 0.0
2018-Jun-16 13:00N 51°03' E 002°19'0 0.0
2018-Jun-16 10:58N 51°03' E 002°19'0 0.0
2018-Jun-16 10:30N 51°03' E 002°19'0 0.0
2018-Jun-16 09:50N 51°03' E 002°19'0 0.0
2018-Jun-16 09:30N 51°03' E 002°19'0 0.0
2018-Jun-16 09:00N 51°03' E 002°19'0 0.0
2018-Jun-16 08:30N 51°03' E 002°19'0 0.0
2018-Jun-16 08:00N 51°03' E 002°19'0 0.0
2018-Jun-16 07:30N 51°03' E 002°19'0 0.0
2018-Jun-16 07:00N 51°03' E 002°19'0 0.0
2018-Jun-16 06:30N 51°03' E 002°19'0 0.0
2018-Jun-16 06:00N 51°03' E 002°19'0 0.0
2018-Jun-16 05:30N 51°03' E 002°19'0 0.0
2018-Jun-16 05:00N 51°03' E 002°19'0 0.0
2018-Jun-16 04:30N 51°03' E 002°19'0 0.0
2018-Jun-16 04:00N 51°03' E 002°19'0 0.0
2018-Jun-16 03:30N 51°03' E 002°19'0 0.0
2018-Jun-16 03:00N 51°03' E 002°19'0 0.0
2018-Jun-16 02:30N 51°03' E 002°19'0 0.0
2018-Jun-16 02:00N 51°03' E 002°19'0 0.0
2018-Jun-16 01:28N 51°03' E 002°19'0 0.0
2018-Jun-16 00:59N 51°03' E 002°19'0 0.0
2018-Jun-16 00:30N 51°03' E 002°19'0 0.0
2018-Jun-16 00:00N 51°03' E 002°19'0 0.0
2018-Jun-15 23:31N 51°03' E 002°19'0 0.0
2018-Jun-15 23:00N 51°03' E 002°19'0 0.0
2018-Jun-15 22:30N 51°03' E 002°19'0 0.0
2018-Jun-15 22:00N 51°03' E 002°19'0 0.0
2018-Jun-15 21:30N 51°03' E 002°19'0 0.0
2018-Jun-15 21:00N 51°03' E 002°19'0 0.0
2018-Jun-15 20:30N 51°03' E 002°19'0 0.0
2018-Jun-15 20:00N 51°03' E 002°19'0 0.0
2018-Jun-15 19:30N 51°03' E 002°19'0 0.0
2018-Jun-15 19:00N 51°03' E 002°19'0 0.0
2018-Jun-15 18:30N 51°03' E 002°19'0 0.0
2018-Jun-15 17:30N 51°03' E 002°19'0 0.0
2018-Jun-15 17:00N 51°03' E 002°19'0 0.2
2018-Jun-15 16:30N 51°03' E 002°20'1 1.3
2018-Jun-15 16:00N 51°03' E 002°21'0 0.0
2018-Jun-15 15:30N 51°03' E 002°21'0 0.9
2018-Jun-15 15:00N 51°04' E 002°21'2 4.4
2018-Jun-15 14:30N 51°04' E 002°18'4 8.4
2018-Jun-15 14:00N 51°03' E 002°11'4 8.6
2018-Jun-15 13:30N 51°03' E 002°04'510.4
2018-Jun-15 13:00N 51°03' E 001°56'5 9.8
2018-Jun-15 12:30N 51°02' E 001°48'1 1.5
2018-Jun-15 12:00N 51°02' E 001°47'0 0.9
2018-Jun-15 11:27N 51°02' E 001°48'0 0.5
2018-Jun-15 11:00N 51°02' E 001°47'0 0.1
2018-Jun-15 10:30N 51°02' E 001°47'0 0.1
2018-Jun-15 10:00N 51°02' E 001°47'0 0.0
2018-Jun-15 09:30N 51°02' E 001°47'0 0.0
2018-Jun-15 08:57N 51°02' E 001°47'0 0.0
2018-Jun-15 08:30N 51°02' E 001°47'0 0.0
2018-Jun-15 08:00N 51°02' E 001°47'0 0.1
2018-Jun-15 07:30N 51°02' E 001°47'0 0.0
2018-Jun-15 07:00N 51°02' E 001°47'0 0.1
2018-Jun-15 06:30N 51°02' E 001°47'0 0.1
2018-Jun-15 06:00N 51°02' E 001°47'0 0.0
2018-Jun-15 05:30N 51°02' E 001°47'0 0.0
2018-Jun-15 05:00N 51°02' E 001°47'0 0.4
2018-Jun-15 04:30N 51°02' E 001°48'0 0.3
2018-Jun-15 04:00N 51°02' E 001°48'0 0.1
2018-Jun-15 03:30N 51°02' E 001°48'0 0.0
2018-Jun-15 03:00N 51°02' E 001°48'0 0.0
2018-Jun-15 02:30N 51°02' E 001°48'0 0.0
2018-Jun-15 01:57N 51°02' E 001°48'0 0.0
2018-Jun-15 01:30N 51°02' E 001°48'0 0.1
2018-Jun-15 01:00N 51°02' E 001°48'0 0.1
2018-Jun-15 00:30N 51°02' E 001°48'0 0.0
2018-Jun-15 00:00N 51°02' E 001°48'0 0.0
2018-Jun-14 23:30N 51°02' E 001°48'0 0.0
2018-Jun-14 22:57N 51°02' E 001°48'0 0.1
2018-Jun-14 22:27N 51°02' E 001°48'0 0.5
2018-Jun-14 22:00N 51°02' E 001°48'0 0.3
2018-Jun-14 21:30N 51°02' E 001°47'0 0.1
2018-Jun-14 21:00N 51°02' E 001°47'0 0.0
2018-Jun-14 20:30N 51°02' E 001°47'0 0.0
2018-Jun-14 20:00N 51°02' E 001°47'0 0.0
2018-Jun-14 19:30N 51°02' E 001°47'0 0.0
2018-Jun-14 19:00N 51°02' E 001°47'0 0.0
2018-Jun-14 18:30N 51°02' E 001°47'0 0.0
2018-Jun-14 18:00N 51°02' E 001°47'0 0.2
2018-Jun-14 17:30N 51°02' E 001°47'0 0.5
2018-Jun-14 17:00N 51°02' E 001°48'0 0.1
2018-Jun-14 16:30N 51°02' E 001°48'0 0.2
2018-Jun-14 16:00N 51°02' E 001°48'3 6.7
2018-Jun-14 15:30N 51°02' E 001°42'1 2.7
2018-Jun-14 15:01N 51°00' E 001°43'1 2.1
2018-Jun-14 14:30N 50°60' E 001°41'1 1.6
2018-Jun-14 14:00N 51°01' E 001°42'3 5.8
2018-Jun-14 13:31N 51°03' E 001°44'1 1.8
2018-Jun-14 13:00N 51°03' E 001°46'2 4.2
2018-Jun-14 12:31N 51°02' E 001°43'1 1.0
2018-Jun-14 12:00N 51°02' E 001°42'3 5.4
2018-Jun-14 11:28N 51°03' E 001°47'2 4.2
2018-Jun-14 10:56N 51°04' E 001°50'2 5.5
2018-Jun-14 10:30N 51°03' E 001°46'2 3.0
2018-Jun-14 10:00N 51°02' E 001°44'1 1.9
2018-Jun-14 09:30N 51°02' E 001°43'0 0.6
2018-Jun-14 09:00N 51°02' E 001°43'0 0.7
2018-Jun-14 08:30N 51°02' E 001°43'0 1.0
2018-Jun-14 08:00N 51°02' E 001°44'1 2.4
2018-Jun-14 07:31N 51°01' E 001°45'1 1.1
2018-Jun-14 07:00N 51°01' E 001°46'0 0.8
2018-Jun-14 06:30N 51°01' E 001°46'0 0.1
2018-Jun-14 06:00N 51°01' E 001°46'0 0.0
2018-Jun-14 05:30N 51°01' E 001°46'0 0.0
2018-Jun-14 05:00N 51°01' E 001°46'0 0.2
2018-Jun-14 04:30N 51°02' E 001°46'0 0.4
2018-Jun-14 04:00N 51°02' E 001°46'0 0.2
2018-Jun-14 03:31N 51°02' E 001°46'0 0.1
2018-Jun-14 03:00N 51°02' E 001°46'0 0.0
2018-Jun-14 02:30N 51°02' E 001°46'0 0.0
2018-Jun-14 02:00N 51°02' E 001°46'0 0.0
2018-Jun-14 01:30N 51°02' E 001°46'0 0.0
2018-Jun-14 01:00N 51°02' E 001°46'0 0.2
2018-Jun-14 00:30N 51°02' E 001°46'0 0.0
2018-Jun-14 00:01N 51°02' E 001°46'0 0.0
2018-Jun-13 23:30N 51°02' E 001°46'0 0.0
2018-Jun-13 23:00N 51°02' E 001°46'0 0.0
2018-Jun-13 22:31N 51°02' E 001°46'0 0.0
2018-Jun-13 22:00N 51°02' E 001°46'0 0.1
2018-Jun-13 21:30N 51°02' E 001°46'0 0.6
2018-Jun-13 21:00N 51°02' E 001°46'0 0.1
2018-Jun-13 20:30N 51°02' E 001°46'0 0.0
2018-Jun-13 20:01N 51°02' E 001°46'0 0.0
2018-Jun-13 19:30N 51°02' E 001°46'0 0.0
2018-Jun-13 19:00N 51°02' E 001°46'0 0.0
2018-Jun-13 18:30N 51°02' E 001°46'0 0.1
2018-Jun-13 18:00N 51°02' E 001°46'0 0.4
2018-Jun-13 17:30N 51°02' E 001°46'1 2.1
2018-Jun-13 17:01N 51°02' E 001°44'4 7.3
2018-Jun-13 16:31N 51°01' E 001°38'5 9.4
2018-Jun-13 16:00N 50°57' E 001°33'510.0
2018-Jun-13 15:31N 50°54' E 001°28'510.4
2018-Jun-13 15:00N 50°49' E 001°26'510.5
2018-Jun-13 14:31N 50°44' E 001°23'510.6
2018-Jun-13 14:00N 50°40' E 001°17'510.9
2018-Jun-13 13:30N 50°36' E 001°11'510.7
2018-Jun-13 13:01N 50°32' E 001°05'510.6
2018-Jun-13 12:30N 50°29' E 000°58'510.6
2018-Jun-13 11:59N 50°28' E 000°49'810.9
2018-Jun-13 11:16N 50°26' E 000°37'711.0
2018-Jun-13 10:40N 50°24' E 000°28'211.2
2018-Jun-13 10:30N 50°23' E 000°25'611.5
2018-Jun-13 10:00N 50°22' E 000°16'612.0
2018-Jun-13 09:30N 50°20' E 000°07'612.5
2018-Jun-13 09:00N 50°18' W 000°02'612.8
2018-Jun-13 08:30N 50°17' W 000°12'713.3
2018-Jun-13 08:00N 50°15' W 000°22'713.5
2018-Jun-13 07:31N 50°13' W 000°32'713.6
2018-Jun-13 07:00N 50°11' W 000°42'713.6
2018-Jun-13 06:30N 50°09' W 000°53'713.3
2018-Jun-13 06:00N 50°07' W 001°02'612.8
2018-Jun-13 05:30N 50°06' W 001°12'612.2
2018-Jun-13 05:00N 50°04' W 001°21'611.5
2018-Jun-13 04:30N 50°03' W 001°30'510.5
2018-Jun-13 04:00N 50°02' W 001°38'510.0
2018-Jun-13 03:30N 50°01' W 001°46'5 9.1
2018-Jun-13 03:00N 49°60' W 001°52'9 7.9
2018-Jun-13 01:52N 49°57' W 002°06'3 7.2
2018-Jun-13 01:28N 49°55' W 002°10'3 6.9
2018-Jun-13 00:58N 49°54' W 002°15'5 7.1
2018-Jun-13 00:16N 49°53' W 002°22'15 8.4
2018-Jun-12 22:27N 49°49' W 002°45'1910.4
2018-Jun-12 20:39N 49°41' W 003°11'210.9
2018-Jun-12 20:28N 49°40' W 003°14'5511.7
2018-Jun-12 15:47N 49°13' W 004°27'412.5
2018-Jun-12 15:27N 49°10' W 004°33'512.5
2018-Jun-12 15:00N 49°08' W 004°40'  

Dump ship's entire track history